createdAt,value
2023-03-29T00:02:00.628Z,1.23
2023-03-29T00:07:06.235Z,1.23
2023-03-29T00:12:11.871Z,1.50
2023-03-29T00:17:17.624Z,1.17
2023-03-29T00:22:23.592Z,1.40
2023-03-29T00:27:29.459Z,0.90
2023-03-29T00:32:35.853Z,1.23
2023-03-29T00:37:41.431Z,1.40
2023-03-29T00:42:47.487Z,1.70
2023-03-29T00:47:57.321Z,1.47
2023-03-29T00:53:18.362Z,1.27
2023-03-29T00:58:26.831Z,1.50
2023-03-29T01:03:35.428Z,1.63
2023-03-29T01:08:49.806Z,1.40
2023-03-29T01:14:02.837Z,1.47
2023-03-29T01:19:11.710Z,1.43
2023-03-29T01:24:36.556Z,1.83
2023-03-29T01:29:45.759Z,1.50
2023-03-29T01:35:00.232Z,1.57
2023-03-29T01:40:06.671Z,1.90
2023-03-29T01:45:27.026Z,1.87
2023-03-29T01:50:58.384Z,1.43
2023-03-29T01:56:25.983Z,1.73
2023-03-29T02:01:34.653Z,1.57
2023-03-29T02:06:41.461Z,1.60
2023-03-29T02:11:48.644Z,1.17
2023-03-29T02:16:54.503Z,1.70
2023-03-29T02:22:10.496Z,1.37
2023-03-29T02:27:17.778Z,2.03
2023-03-29T02:32:44.848Z,1.50
2023-03-29T02:37:54.667Z,1.37
2023-03-29T02:43:07.117Z,1.60
2023-03-29T02:48:16.801Z,1.30
2023-03-29T02:53:29.045Z,1.90
2023-03-29T02:58:36.241Z,2.00
2023-03-29T03:03:41.836Z,1.77
2023-03-29T03:08:47.429Z,2.00
2023-03-29T03:13:53.034Z,1.20
2023-03-29T03:18:59.182Z,1.50
2023-03-29T03:24:07.739Z,1.70
2023-03-29T03:29:14.190Z,1.57
2023-03-29T03:34:28.292Z,1.80
2023-03-29T03:39:35.375Z,1.90
2023-03-29T03:44:43.185Z,1.87
2023-03-29T03:50:02.444Z,1.77
2023-03-29T03:55:09.410Z,1.43
2023-03-29T04:00:19.866Z,1.63
2023-03-29T04:05:27.150Z,1.73
2023-03-29T04:10:34.425Z,1.80
2023-03-29T04:15:46.198Z,1.77
2023-03-29T04:20:52.556Z,1.60
2023-03-29T04:25:59.787Z,1.40
2023-03-29T04:31:17.033Z,1.83
2023-03-29T04:36:39.495Z,1.60
2023-03-29T04:41:47.421Z,1.80
2023-03-29T04:47:01.374Z,2.17
2023-03-29T04:52:22.480Z,1.77
2023-03-29T04:57:28.185Z,1.93
2023-03-29T05:02:45.700Z,1.70
2023-03-29T05:07:51.690Z,2.63
2023-03-29T05:12:58.833Z,2.20
2023-03-29T05:18:05.702Z,2.27
2023-03-29T05:23:12.696Z,3.00
2023-03-29T05:28:36.702Z,3.10
2023-03-29T05:33:42.577Z,2.50
2023-03-29T05:38:49.330Z,2.73
2023-03-29T05:43:56.523Z,2.47
2023-03-29T05:49:03.058Z,2.43
2023-03-29T05:54:13.567Z,2.70
2023-03-29T05:59:20.270Z,1.90
2023-03-29T06:04:26.537Z,3.10
2023-03-29T06:09:36.917Z,2.50
2023-03-29T06:14:42.984Z,2.20
2023-03-29T06:19:50.550Z,3.70
2023-03-29T06:24:56.758Z,2.07
2023-03-29T06:30:05.881Z,2.87
2023-03-29T06:35:12.921Z,2.73
2023-03-29T06:40:21.375Z,2.43
2023-03-29T06:45:29.849Z,2.20
2023-03-29T06:50:37.184Z,2.57
2023-03-29T06:55:47.443Z,3.20
2023-03-29T07:01:05.143Z,3.00
2023-03-29T07:06:20.705Z,2.50
2023-03-29T07:11:26.777Z,2.43
2023-03-29T07:16:35.766Z,3.43
2023-03-29T07:21:43.876Z,2.93
2023-03-29T07:27:03.461Z,2.83
2023-03-29T07:31:58.532Z,2.63
2023-03-29T07:37:07.272Z,2.60
2023-03-29T07:42:13.743Z,2.57
2023-03-29T07:47:19.751Z,2.77
2023-03-29T07:52:27.944Z,2.77
2023-03-29T07:57:34.886Z,2.60
2023-03-29T08:02:40.710Z,2.87
2023-03-29T08:07:47.535Z,2.67
2023-03-29T08:12:55.160Z,2.80
2023-03-29T08:18:02.473Z,2.33
2023-03-29T08:23:08.163Z,2.40
2023-03-29T08:28:15.472Z,2.63
2023-03-29T08:33:22.772Z,3.10
2023-03-29T08:38:32.957Z,2.63
2023-03-29T08:43:51.078Z,2.90
2023-03-29T08:49:17.725Z,2.50
2023-03-29T08:54:27.504Z,2.97
2023-03-29T08:59:52.989Z,2.33
2023-03-29T09:05:06.013Z,2.17
2023-03-29T09:10:21.328Z,2.10
2023-03-29T09:15:36.248Z,2.00
2023-03-29T09:21:02.338Z,2.27
2023-03-29T09:26:37.567Z,2.30
2023-03-29T09:31:46.233Z,2.50
2023-03-29T09:36:59.633Z,3.50
2023-03-29T09:42:11.884Z,2.00
2023-03-29T09:47:36.164Z,2.60
2023-03-29T09:52:43.832Z,2.77
2023-03-29T09:57:51.177Z,3.70
2023-03-29T10:03:00.495Z,3.27
2023-03-29T10:08:22.767Z,2.50
2023-03-29T10:13:32.312Z,2.93
2023-03-29T10:18:42.732Z,2.57
2023-03-29T10:23:49.895Z,2.63
2023-03-29T10:28:57.440Z,3.80
2023-03-29T10:34:06.361Z,2.60
2023-03-29T10:39:15.515Z,2.93
2023-03-29T10:44:32.749Z,2.50
2023-03-29T10:49:47.674Z,2.60
2023-03-29T10:54:57.235Z,2.63
2023-03-29T11:00:24.355Z,2.93
2023-03-29T11:05:50.099Z,2.53
2023-03-29T11:11:10.409Z,2.03
2023-03-29T11:16:21.750Z,2.17
2023-03-29T11:21:46.055Z,2.40
2023-03-29T11:27:14.041Z,3.17
2023-03-29T11:32:34.397Z,2.20
2023-03-29T11:37:48.796Z,2.13
2023-03-29T11:42:57.022Z,2.17
2023-03-29T11:48:06.037Z,2.60
2023-03-29T11:53:18.466Z,2.20
2023-03-29T11:58:32.697Z,2.23
2023-03-29T12:03:53.469Z,2.33
2023-03-29T12:09:05.471Z,2.50
2023-03-29T12:14:16.765Z,2.63
2023-03-29T12:19:26.087Z,2.30
2023-03-29T12:24:33.546Z,2.43
2023-03-29T12:29:53.868Z,2.90
2023-03-29T12:35:08.768Z,2.30
2023-03-29T12:40:47.112Z,2.63
2023-03-29T12:46:10.349Z,2.50
2023-03-29T12:51:18.675Z,2.73
2023-03-29T12:56:27.875Z,2.30
2023-03-29T13:01:37.146Z,2.60
2023-03-29T13:06:53.745Z,2.80
2023-03-29T13:12:02.889Z,2.23
2023-03-29T13:17:18.481Z,2.67
2023-03-29T13:22:39.527Z,2.60
2023-03-29T13:28:03.495Z,3.10
2023-03-29T13:33:26.983Z,3.13
2023-03-29T13:38:33.277Z,2.47
2023-03-29T13:43:44.744Z,2.40
2023-03-29T13:49:05.479Z,2.50
2023-03-29T13:54:35.636Z,2.50
2023-03-29T13:59:59.586Z,2.23
2023-03-29T14:05:08.793Z,2.47
2023-03-29T14:10:16.833Z,2.90
2023-03-29T14:15:31.102Z,2.53
2023-03-29T14:20:37.844Z,2.13
2023-03-29T14:25:43.422Z,2.50
2023-03-29T14:30:50.042Z,2.50
2023-03-29T14:35:58.110Z,2.00
2023-03-29T14:41:04.653Z,2.20
2023-03-29T14:46:11.050Z,2.40
2023-03-29T14:51:17.207Z,2.63
2023-03-29T14:56:24.821Z,2.27
2023-03-29T15:01:30.508Z,2.47
2023-03-29T15:06:41.879Z,2.67
2023-03-29T15:11:58.009Z,2.30
2023-03-29T15:17:07.062Z,2.57
2023-03-29T15:22:13.142Z,2.77
2023-03-29T15:27:21.160Z,2.27
2023-03-29T15:32:29.671Z,2.77
2023-03-29T15:37:36.815Z,2.77
2023-03-29T15:42:42.691Z,2.60
2023-03-29T15:47:48.803Z,2.50
2023-03-29T15:52:59.987Z,3.10
2023-03-29T15:58:03.664Z,3.43
2023-03-29T16:03:12.336Z,2.90
2023-03-29T16:08:17.933Z,3.20
2023-03-29T16:13:23.550Z,3.37
2023-03-29T16:18:29.181Z,3.30
2023-03-29T16:23:34.633Z,3.53
2023-03-29T16:28:41.096Z,3.57
2023-03-29T16:33:46.751Z,3.60
2023-03-29T16:38:52.260Z,3.27
2023-03-29T16:43:58.507Z,4.27
2023-03-29T16:49:05.747Z,3.30
2023-03-29T16:54:12.095Z,2.97
2023-03-29T16:59:17.527Z,3.00
2023-03-29T17:04:23.018Z,2.83
2023-03-29T17:09:29.819Z,3.00
2023-03-29T17:14:36.143Z,3.10
2023-03-29T17:19:41.781Z,3.03
2023-03-29T17:24:47.311Z,3.20
2023-03-29T17:29:53.217Z,2.83
2023-03-29T17:35:00.494Z,3.67
2023-03-29T17:40:12.815Z,3.23
2023-03-29T17:45:20.142Z,3.47
2023-03-29T17:50:26.297Z,2.97
2023-03-29T17:55:53.049Z,3.43
2023-03-29T18:00:58.681Z,3.67
2023-03-29T18:06:04.661Z,3.10
2023-03-29T18:11:13.227Z,3.27
2023-03-29T18:16:19.630Z,3.27
2023-03-29T18:21:26.486Z,3.40
2023-03-29T18:26:32.937Z,2.97
2023-03-29T18:31:38.699Z,3.70
2023-03-29T18:36:44.859Z,3.27
2023-03-29T18:41:50.663Z,3.10
2023-03-29T18:46:56.411Z,3.10
2023-03-29T18:52:02.912Z,3.20
2023-03-29T18:57:09.109Z,3.40
2023-03-29T19:02:15.711Z,3.57
2023-03-29T19:07:22.651Z,3.73
2023-03-29T19:12:28.811Z,3.60
2023-03-29T19:17:34.385Z,3.47
2023-03-29T19:22:40.570Z,3.30
2023-03-29T19:27:46.521Z,3.50
2023-03-29T19:32:52.308Z,4.10
2023-03-29T19:37:57.815Z,4.37
2023-03-29T19:43:03.630Z,4.70
2023-03-29T19:53:17.826Z,4.33
2023-03-29T19:58:23.413Z,5.30
2023-03-29T20:03:29.166Z,4.33
2023-03-29T20:08:36.915Z,4.90
2023-03-29T20:13:46.796Z,4.87
2023-03-29T20:18:54.096Z,4.77
2023-03-29T20:23:59.666Z,5.00
2023-03-29T20:29:06.374Z,4.37
2023-03-29T20:34:12.358Z,5.10
2023-03-29T20:39:18.984Z,5.20
2023-03-29T20:44:26.534Z,4.00
2023-03-29T20:49:39.536Z,4.17
2023-03-29T20:54:46.338Z,5.00
2023-03-29T20:59:54.049Z,4.87
2023-03-29T21:05:00.438Z,4.87
2023-03-29T21:10:07.078Z,5.00
2023-03-29T21:15:15.043Z,4.90
2023-03-29T21:20:21.467Z,5.27
2023-03-29T21:25:27.116Z,4.83
2023-03-29T21:30:32.928Z,5.70
2023-03-29T21:35:38.887Z,5.20
2023-03-29T21:40:44.869Z,5.30
2023-03-29T21:45:52.475Z,5.93
2023-03-29T21:50:58.297Z,5.60
2023-03-29T21:56:04.775Z,6.43
2023-03-29T22:01:10.702Z,5.37
2023-03-29T22:06:16.460Z,5.87
2023-03-29T22:11:23.416Z,5.23
2023-03-29T22:16:30.709Z,5.30
2023-03-29T22:21:37.779Z,5.43
2023-03-29T22:26:45.096Z,5.77
2023-03-29T22:31:50.979Z,5.17
2023-03-29T22:36:56.684Z,5.17
2023-03-29T22:42:02.257Z,5.30
2023-03-29T22:47:08.877Z,4.33
2023-03-29T22:52:14.595Z,5.03
2023-03-29T22:57:20.319Z,4.83
2023-03-29T23:02:26.064Z,5.13
2023-03-29T23:07:33.272Z,5.03
2023-03-29T23:12:39.293Z,5.80
2023-03-29T23:17:44.877Z,5.53
2023-03-29T23:22:50.362Z,4.57
2023-03-29T23:27:56.050Z,4.80
2023-03-29T23:33:02.621Z,6.33
2023-03-29T23:38:08.623Z,5.83
2023-03-29T23:43:14.818Z,5.87
2023-03-29T23:48:20.258Z,5.33
2023-03-29T23:53:28.941Z,4.80
2023-03-29T23:58:37.542Z,5.87
